Latest Coastal Weather Observations for Swanbourne

IDW60701

Issued at 4:45 pm WST Sunday 23 November 2014 (issued every 10 minutes, with the page automatically refreshed every 10 minutes)

About coastal observations | Map of coastal stations | Coastal observations for WA | Marine services | Other Formats
Station Details ID: 009215 Name: SWANBOURNE Lat: -31.96 Lon: 115.76 Height: 40.96 m
Data from the previous 72 hours. | See also: Recent months at Swanbourne
Date/Time
WST
Temp

°C
Wind Pressure Rain
since 9am
mm
Weather Cloud Vis
km
Sea
Height
m
Swell
Dir
 
Speed
knots
Gust
knots
hPa Trend Height
m
Period
s
Dir
23/04:30pm 20.1 SSW 14 22 - - 0.0 - - - - - - -
23/04:00pm 20.6 SSW 14 22 - - 0.0 - - - - - - -
23/03:30pm 21.1 SSW 14 20 - - 0.0 - - - - - - -
23/03:00pm 21.9 SW 13 21 - - 0.0 - - - - - - -
23/02:30pm 21.1 SW 13 19 - - 0.0 - - - - - - -
23/02:00pm 21.9 SW 14 20 - - 0.0 - - - - - - -
23/01:30pm 21.9 SW 14 19 - - 0.0 - - - - - - -
23/01:00pm 21.8 SW 13 18 - - 0.0 - - - - - - -
23/12:30pm 22.0 SW 12 17 - - 0.0 - - - - - - -
23/12:00pm 22.1 SW 11 18 - - 0.0 - - - - - - -
23/11:30am 20.3 SW 10 14 - - 0.0 - - - - - - -
23/11:00am 20.9 SW 12 20 - - 0.0 - - - - - - -
23/10:30am 21.2 SSW 13 20 - - 0.0 - - - - - - -
23/10:00am 20.8 SW 13 19 - - 0.0 - - - - - - -
23/09:30am 21.8 SSW 13 21 - - 0.0 - - - - - - -
23/09:00am 21.3 SW 13 19 - - 0.0 - - - - - - -
23/08:30am 20.5 SSW 11 17 - - 0.0 - - - - - - -
23/08:00am 19.8 SW 11 18 - - 0.0 - - - - - - -
23/07:30am 17.8 SW 16 23 - - 0.0 - - - - - - -
23/07:00am 18.5 SSW 11 17 - - 0.0 - - - - - - -
23/06:30am 18.2 SW 10 15 - - 0.0 - - - - - - -
23/06:00am 17.6 SW 11 17 - - 0.0 - - - - - - -
23/05:30am 17.1 SSW 10 15 - - 0.0 - - - - - - -
23/05:00am 17.2 SW 9 16 - - 0.0 - - - - - - -
23/04:30am 17.2 SW 10 14 - - 0.0 - - - - - - -
23/04:00am 16.9 SW 10 15 - - 0.0 - - - - - - -
23/03:30am 17.0 SSW 11 16 - - 0.0 - - - - - - -
23/03:00am 17.2 SW 9 15 - - 0.0 - - - - - - -
23/02:30am 17.2 SW 11 18 - - 0.0 - - - - - - -
23/02:00am 17.0 WSW 9 13 - - 0.0 - - - - - - -
23/01:30am 17.0 SSW 10 16 - - 0.0 - - - - - - -
23/01:00am 17.3 SW 12 17 - - 0.0 - - - - - - -
23/12:30am 17.4 SSW 13 19 - - 0.0 - - - - - - -
23/12:00am 17.6 SW 10 14 - - 0.0 - - - - - - -
 
Date/Time
WST
Temp

°C
Wind Pressure Rain
since 9am
mm
Weather Cloud Vis
km
Sea
Height
m
Swell
Dir
 
Speed
knots
Gust
knots
hPa Trend Height
m
Period
s
Dir
22/11:30pm 17.6 SW 11 16 - - 0.0 - - - - - - -
22/11:00pm 17.4 SSW 10 15 - - 0.0 - - - - - - -
22/10:30pm 17.4 SW 11 17 - - 0.0 - - - - - - -
22/10:00pm 17.6 SW 10 14 - - 0.0 - - - - - - -
22/09:30pm 17.3 SSW 6 10 - - 0.0 - - - - - - -
22/09:00pm 17.2 SW 7 11 - - 0.0 - - - - - - -
22/08:30pm 17.3 SW 9 13 - - 0.0 - - - - - - -
22/08:00pm 17.5 SW 10 14 - - 0.0 - - - - - - -
22/07:30pm 17.2 SW 10 13 - - 0.0 - - - - - - -
22/07:00pm 17.5 SW 10 15 - - 0.0 - - - - - - -
22/06:30pm 18.2 SW 10 15 - - 0.0 - - - - - - -
22/06:00pm 19.2 WSW 10 14 - - 0.0 - - - - - - -
22/05:30pm 19.6 WSW 9 14 - - 0.0 - - - - - - -
22/05:00pm 20.3 WSW 11 17 - - 0.0 - - - - - - -
22/04:30pm 20.7 SW 10 16 - - 0.0 - - - - - - -
22/04:00pm 21.1 WSW 10 15 - - 0.0 - - - - - - -
22/03:30pm 21.5 WSW 10 16 - - 0.0 - - - - - - -
22/03:00pm 21.7 WSW 12 16 - - 0.0 - - - - - - -
22/02:30pm 22.0 WSW 10 15 - - 0.0 - - - - - - -
22/02:00pm 21.9 WSW 10 14 - - 0.0 - - - - - - -
22/01:30pm 22.5 WSW 10 14 - - 0.0 - - - - - - -
22/01:00pm 21.7 WSW 10 14 - - 0.0 - - - - - - -
22/12:30pm 22.2 SW 8 12 - - 0.0 - - - - - - -
22/12:00pm 21.3 WSW 8 12 - - 0.0 - - - - - - -
22/11:30am 21.4 WSW 8 13 - - 0.0 - - - - - - -
22/11:00am 22.2 SW 10 13 - - 0.0 - - - - - - -
22/10:30am 20.2 SW 9 13 - - 0.0 - - - - - - -
22/10:00am 22.5 SSW 9 13 - - 0.0 - - - - - - -
22/09:30am 19.7 SSW 9 14 - - 0.0 - - - - - - -
22/09:00am 19.4 SW 7 12 - - 0.2 - - - - - - -
22/08:30am 20.5 SW 8 12 - - 0.2 - - - - - - -
22/08:00am 18.5 SW 7 11 - - 0.2 - - - - - - -
22/07:30am 16.9 S 5 8 - - 0.2 - - - - - - -
22/07:00am 15.7 S 9 17 - - 0.2 - - - - - - -
22/06:30am 16.3 SW 7 12 - - 0.0 - - - - - - -
22/06:00am 15.6 SSW 5 8 - - 0.0 - - - - - - -
22/05:30am 15.1 S 7 10 - - 0.0 - - - - - - -
22/05:00am 15.3 SSW 9 12 - - 0.0 - - - - - - -
22/04:30am 15.8 SW 7 10 - - 0.0 - - - - - - -
22/04:00am 15.9 SW 9 15 - - 0.0 - - - - - - -
22/03:30am 15.5 SW 11 17 - - 0.0 - - - - - - -
22/03:00am 15.0 S 4 10 - - 0.0 - - - - - - -
22/02:30am 16.0 SSW 7 16 - - 0.0 - - - - - - -
22/02:00am 16.7 SSW 8 13 - - 0.0 - - - - - - -
22/01:30am 16.7 SSW 8 11 - - 0.0 - - - - - - -
22/01:00am 17.1 SSW 10 15 - - 0.0 - - - - - - -
22/12:30am 17.7 SW 10 16 - - 0.0 - - - - - - -
22/12:00am 17.5 WSW 7 11 - - 0.0 - - - - - - -
 
Date/Time
WST
Temp

°C
Wind Pressure Rain
since 9am
mm
Weather Cloud Vis
km
Sea
Height
m
Swell
Dir
 
Speed
knots
Gust
knots
hPa Trend Height
m
Period
s
Dir
21/11:30pm 17.6 WSW 8 10 - - 0.0 - - - - - - -
21/11:00pm 17.5 SW 7 12 - - 0.0 - - - - - - -
21/10:30pm 17.3 WSW 8 12 - - 0.0 - - - - - - -
21/10:00pm 17.5 WSW 8 11 - - 0.0 - - - - - - -
21/09:30pm 17.2 WSW 9 13 - - 0.0 - - - - - - -
21/09:00pm 17.6 WSW 11 15 - - 0.0 - - - - - - -
21/08:30pm 17.7 SW 9 13 - - 0.0 - - - - - - -
21/08:00pm 17.2 WSW 5 8 - - 0.0 - - - - - - -
21/07:30pm 17.4 SW 7 12 - - 0.0 - - - - - - -
21/07:00pm 17.8 WSW 6 9 - - 0.0 - - - - - - -
21/06:30pm 18.3 WSW 7 9 - - 0.0 - - - - - - -
21/06:00pm 19.2 WSW 7 12 - - 0.0 - - - - - - -
21/05:30pm 20.1 WSW 9 13 - - 0.0 - - - - - - -
21/05:00pm 20.6 WSW 10 15 - - 0.0 - - - - - - -
21/04:30pm 20.2 WSW 9 14 - - 0.0 - - - - - - -
21/04:00pm 21.1 WSW 10 14 - - 0.0 - - - - - - -
21/03:30pm 20.7 WSW 11 16 - - 0.0 - - - - - - -
21/03:00pm 21.4 WSW 11 16 - - 0.0 - - - - - - -
21/02:30pm 21.7 WSW 10 14 - - 0.0 - - - - - - -
21/02:00pm 22.4 WSW 10 14 - - 0.0 - - - - - - -
21/01:30pm 22.9 WSW 10 15 - - 0.0 - - - - - - -
21/01:00pm 22.2 WSW 10 15 - - 0.0 - - - - - - -
21/12:30pm 21.7 WSW 12 16 - - 0.0 - - - - - - -
21/12:00pm 21.0 WSW 11 16 - - 0.0 - - - - - - -
21/11:30am 20.6 WSW 12 17 - - 0.0 - - - - - - -
21/11:00am 20.2 SW 10 15 - - 0.0 - - - - - - -
21/10:30am 19.4 SW 11 16 - - 0.0 - - - - - - -
21/10:00am 19.4 WSW 9 14 - - 0.0 - - - - - - -
21/09:30am 19.9 WSW 12 16 - - 0.0 - - - - - - -
21/09:00am 18.0 WSW 11 16 - - 4.8 Recent precip. - - - - - -
21/08:30am 17.9 WSW 8 11 - - 4.8 - - - - - - -
21/08:00am 18.5 W 8 12 - - 4.4 - - - - - - -
21/07:30am 17.7 WSW 8 12 - - 4.4 - - - - - - -
21/07:00am 16.3 WSW 13 17 - - 4.4 - - - - - - -
21/06:30am 17.5 WSW 10 14 - - 4.2 - - - - - - -
21/06:00am 17.9 W 11 15 - - 2.4 Recent precip. - - - - - -
21/05:30am 18.8 WNW 10 16 - - 0.4 - - - - - - -
21/05:00am 18.4 W 10 15 - - 0.4 - - - - - - -
21/04:30am 18.0 W 10 14 - - 0.4 - - - - - - -
21/04:00am 18.0 W 10 15 - - 0.4 - - - - - - -
21/03:30am 18.2 W 10 14 - - 0.4 - - - - - - -
21/03:00am 18.1 W 10 14 - - 0.4 - - - - - - -
21/02:30am 18.1 W 10 16 - - 0.4 - - - - - - -
21/02:00am 18.4 W 9 13 - - 0.4 - - - - - - -
21/01:30am 18.3 W 11 15 - - 0.4 - - - - - - -
21/01:00am 18.3 W 10 15 - - 0.4 - - - - - - -
21/12:30am 18.5 W 11 16 - - 0.4 - - - - - - -
21/12:00am 18.3 WNW 9 13 - - 0.4 - - - - - - -
 
Date/Time
WST
Temp

°C
Wind Pressure Rain
since 9am
mm
Weather Cloud Vis
km
Sea
Height
m
Swell
Dir
 
Speed
knots
Gust
knots
hPa Trend Height
m
Period
s
Dir
20/11:30pm 18.4 WNW 11 16 - - 0.4 - - - - - - -
20/11:00pm 18.7 W 12 17 - - 0.4 - - - - - - -
20/10:30pm 18.8 W 11 16 - - 0.4 - - - - - - -
20/10:00pm 18.9 WNW 12 16 - - 0.4 - - - - - - -
20/09:30pm 19.1 WNW 12 16 - - 0.4 - - - - - - -
20/09:00pm 19.0 WNW 11 15 - - 0.4 - - - - - - -
20/08:30pm 18.6 WNW 11 16 - - 0.4 - - - - - - -
20/08:00pm 18.6 WNW 11 15 - - 0.4 - - - - - - -
20/07:30pm 18.7 WNW 11 15 - - 0.4 - - - - - - -
20/07:00pm 18.6 W 11 14 - - 0.4 - - - - - - -
20/06:30pm 19.2 WNW 11 15 - - 0.4 - - - - - - -
20/06:00pm 20.6 W 10 15 - - 0.4 - - - - - - -
20/05:30pm 21.3 W 12 18 - - 0.4 - - - - - - -
20/05:00pm 21.7 W 12 18 - - 0.4 - - - - - - -

Other Formats:

Comma delimited format used in spreadsheet applications
http://www.bom.gov.au/fwo/IDW60701/IDW60701.94614.axf

JavaScript Object Notation format (JSON) in row-major order
http://www.bom.gov.au/fwo/IDW60701/IDW60701.94614.json